Black River (Missouri), Leeper (07062500)

StateMissouriLatestLow (599 cfs)
RiverBlack RiverRatingObservedEstimated
Updated2020-07-13 19:30 (1 hour ago)Flood - The river is flooding. Obstacles can be treacherous or deadly. The river should be avoided at this stage for casual trips and definitely for the inexperienced. Trips should be attempted only with protective gear and equipment.Flood(none)3460
Discharge599 cfs (median: 367 cfs)High - The river is high and potentially dangerous, especially for the young and / or inexperienced. Normal stream obstacles are sometimes difficult to navigate. Extended distances can be attempted, but canoe travel may not be advisable.High(none)1125
Height2.83 feetGood - Conditions are ideal for a canoe or kayak. Boats typically will drag on fewer than one-quarter of riffles, if at all, and portages are unnecessary or rare. Normal float lengths can be attempted without a problem.Good(none)691
TrendSteady (falling over 24 hours)Low - River is low but can still be floated. Some riffles are okay but most come with significant dragging and might need a portage. Float lengths should be reduced to accommodate low flow, dragging, and portages.Low(none)413
USGSExternal icon USGS Site (External icon Google Maps)Poor - River is too low to float comfortably. Most or all riffles will drag or must be portaged and some obstacles (such as slick shelf rock) cause undue problems. Avoid the river at this stage for casual paddling trips.Poor(none)218

Trending Data

Plot Image

Trips for Black River (Missouri), Leeper (07062500)

DateStartEndDistanceConditionDischargeHeightFishingDetails

A total of 0 rows are displayed.

Condition Descriptions

Fishing Conditions

Fish Species

Notes

Classic Trip List

The classic River Trips application is still available for use. It is updated with the new system using a data retrofit. It is no longer maintained. The original River Trips application is no longer updated (as of 1 Dec 2016) but can be checked for errors or for the condition of the data before it was converted to the new system.

Gauge Data Table

ObservationHeightDischargeMaximum
Discharge
Minimum
Discharge
Mean
Discharge
P05P10P20P25P50
(Median)
P75P80P90P95
2020-07-13 19:30 2.83 599 3710 (2015) 187 (1962) 745 206 247 266 288 367 737 1110 1810 3070
2020-07-13 18:30 2.83 599 3710 (2015) 187 (1962) 745 206 247 266 288 367 737 1110 1810 3070
2020-07-13 17:30 2.83 599 3710 (2015) 187 (1962) 745 206 247 266 288 367 737 1110 1810 3070
2020-07-13 16:30 2.84 603 3710 (2015) 187 (1962) 745 206 247 266 288 367 737 1110 1810 3070
2020-07-13 15:30 2.85 608 3710 (2015) 187 (1962) 745 206 247 266 288 367 737 1110 1810 3070
2020-07-13 14:30 2.87 616 3710 (2015) 187 (1962) 745 206 247 266 288 367 737 1110 1810 3070
2020-07-13 13:30 2.87 616 3710 (2015) 187 (1962) 745 206 247 266 288 367 737 1110 1810 3070
2020-07-13 12:30 2.88 621 3710 (2015) 187 (1962) 745 206 247 266 288 367 737 1110 1810 3070
2020-07-13 11:30 2.89 625 3710 (2015) 187 (1962) 745 206 247 266 288 367 737 1110 1810 3070
2020-07-13 10:30 2.89 625 3710 (2015) 187 (1962) 745 206 247 266 288 367 737 1110 1810 3070
2020-07-13 09:30 2.88 621 3710 (2015) 187 (1962) 745 206 247 266 288 367 737 1110 1810 3070
2020-07-13 08:30 2.89 625 3710 (2015) 187 (1962) 745 206 247 266 288 367 737 1110 1810 3070
2020-07-13 07:30 2.89 625 3710 (2015) 187 (1962) 745 206 247 266 288 367 737 1110 1810 3070
2020-07-13 06:30 2.90 630 3710 (2015) 187 (1962) 745 206 247 266 288 367 737 1110 1810 3070
2020-07-13 05:30 2.88 621 3710 (2015) 187 (1962) 745 206 247 266 288 367 737 1110 1810 3070
2020-07-13 04:30 2.89 625 3710 (2015) 187 (1962) 745 206 247 266 288 367 737 1110 1810 3070
2020-07-13 03:30 2.89 625 3710 (2015) 187 (1962) 745 206 247 266 288 367 737 1110 1810 3070
2020-07-13 02:30 2.89 625 3710 (2015) 187 (1962) 745 206 247 266 288 367 737 1110 1810 3070
2020-07-13 01:30 2.89 625 3710 (2015) 187 (1962) 745 206 247 266 288 367 737 1110 1810 3070
2020-07-13 00:30 2.89 625 3710 (2015) 187 (1962) 745 206 247 266 288 367 737 1110 1810 3070
2020-07-12 23:30 2.88 621 3660 (2015) 182 (1962) 773 204 237 258 274 389 773 1280 2010 3370
2020-07-12 22:30 2.90 630 3660 (2015) 182 (1962) 773 204 237 258 274 389 773 1280 2010 3370
2020-07-12 21:30 2.89 625 3660 (2015) 182 (1962) 773 204 237 258 274 389 773 1280 2010 3370
2020-07-12 20:30 2.88 621 3660 (2015) 182 (1962) 773 204 237 258 274 389 773 1280 2010 3370
2020-07-12 19:30 2.89 625 3660 (2015) 182 (1962) 773 204 237 258 274 389 773 1280 2010 3370
2020-07-12 18:30 2.89 625 3660 (2015) 182 (1962) 773 204 237 258 274 389 773 1280 2010 3370
2020-07-12 17:30 2.89 625 3660 (2015) 182 (1962) 773 204 237 258 274 389 773 1280 2010 3370
2020-07-12 16:30 2.90 630 3660 (2015) 182 (1962) 773 204 237 258 274 389 773 1280 2010 3370
2020-07-12 15:30 2.89 625 3660 (2015) 182 (1962) 773 204 237 258 274 389 773 1280 2010 3370
2020-07-12 14:30 2.90 630 3660 (2015) 182 (1962) 773 204 237 258 274 389 773 1280 2010 3370
2020-07-12 13:30 2.90 630 3660 (2015) 182 (1962) 773 204 237 258 274 389 773 1280 2010 3370
2020-07-12 12:30 2.90 630 3660 (2015) 182 (1962) 773 204 237 258 274 389 773 1280 2010 3370
2020-07-12 11:30 2.90 630 3660 (2015) 182 (1962) 773 204 237 258 274 389 773 1280 2010 3370
2020-07-12 10:30 2.90 630 3660 (2015) 182 (1962) 773 204 237 258 274 389 773 1280 2010 3370
2020-07-12 09:30 2.91 634 3660 (2015) 182 (1962) 773 204 237 258 274 389 773 1280 2010 3370
2020-07-12 08:30 2.90 630 3660 (2015) 182 (1962) 773 204 237 258 274 389 773 1280 2010 3370
2020-07-12 07:30 2.90 630 3660 (2015) 182 (1962) 773 204 237 258 274 389 773 1280 2010 3370
2020-07-12 06:30 2.91 634 3660 (2015) 182 (1962) 773 204 237 258 274 389 773 1280 2010 3370
2020-07-12 05:30 2.90 630 3660 (2015) 182 (1962) 773 204 237 258 274 389 773 1280 2010 3370
2020-07-12 04:30 2.90 630 3660 (2015) 182 (1962) 773 204 237 258 274 389 773 1280 2010 3370
2020-07-12 03:30 2.90 630 3660 (2015) 182 (1962) 773 204 237 258 274 389 773 1280 2010 3370
2020-07-12 02:30 2.90 630 3660 (2015) 182 (1962) 773 204 237 258 274 389 773 1280 2010 3370
2020-07-12 01:30 2.90 630 3660 (2015) 182 (1962) 773 204 237 258 274 389 773 1280 2010 3370
2020-07-12 00:30 2.90 630 3660 (2015) 182 (1962) 773 204 237 258 274 389 773 1280 2010 3370
2020-07-11 23:30 2.90 630 3600 (1950) 201 (1964) 804 205 238 259 279 406 818 1510 2020 3290
2020-07-11 22:30 2.92 638 3600 (1950) 201 (1964) 804 205 238 259 279 406 818 1510 2020 3290
2020-07-11 21:30 2.91 634 3600 (1950) 201 (1964) 804 205 238 259 279 406 818 1510 2020 3290
2020-07-11 20:30 2.90 630 3600 (1950) 201 (1964) 804 205 238 259 279 406 818 1510 2020 3290
2020-07-11 19:30 2.90 630 3600 (1950) 201 (1964) 804 205 238 259 279 406 818 1510 2020 3290
2020-07-11 18:30 2.90 630 3600 (1950) 201 (1964) 804 205 238 259 279 406 818 1510 2020 3290
2020-07-11 17:30 2.90 630 3600 (1950) 201 (1964) 804 205 238 259 279 406 818 1510 2020 3290
2020-07-11 16:30 2.91 634 3600 (1950) 201 (1964) 804 205 238 259 279 406 818 1510 2020 3290
2020-07-11 15:30 2.91 634 3600 (1950) 201 (1964) 804 205 238 259 279 406 818 1510 2020 3290
2020-07-11 14:30 2.91 634 3600 (1950) 201 (1964) 804 205 238 259 279 406 818 1510 2020 3290
2020-07-11 13:30 2.91 634 3600 (1950) 201 (1964) 804 205 238 259 279 406 818 1510 2020 3290
2020-07-11 12:30 2.91 634 3600 (1950) 201 (1964) 804 205 238 259 279 406 818 1510 2020 3290
2020-07-11 11:30 2.92 638 3600 (1950) 201 (1964) 804 205 238 259 279 406 818 1510 2020 3290
2020-07-11 10:30 2.91 634 3600 (1950) 201 (1964) 804 205 238 259 279 406 818 1510 2020 3290
2020-07-11 09:30 2.91 634 3600 (1950) 201 (1964) 804 205 238 259 279 406 818 1510 2020 3290
2020-07-11 08:30 2.91 634 3600 (1950) 201 (1964) 804 205 238 259 279 406 818 1510 2020 3290
2020-07-11 07:30 2.92 638 3600 (1950) 201 (1964) 804 205 238 259 279 406 818 1510 2020 3290
2020-07-11 06:30 2.91 634 3600 (1950) 201 (1964) 804 205 238 259 279 406 818 1510 2020 3290
2020-07-11 05:30 2.92 638 3600 (1950) 201 (1964) 804 205 238 259 279 406 818 1510 2020 3290
2020-07-11 04:30 2.93 643 3600 (1950) 201 (1964) 804 205 238 259 279 406 818 1510 2020 3290
2020-07-11 03:30 2.92 638 3600 (1950) 201 (1964) 804 205 238 259 279 406 818 1510 2020 3290
2020-07-11 02:30 2.92 638 3600 (1950) 201 (1964) 804 205 238 259 279 406 818 1510 2020 3290
2020-07-11 01:30 2.93 643 3600 (1950) 201 (1964) 804 205 238 259 279 406 818 1510 2020 3290
2020-07-11 00:30 2.93 643 3600 (1950) 201 (1964) 804 205 238 259 279 406 818 1510 2020 3290
2020-07-10 23:30 2.93 643 3490 (2017) 199 (1964) 780 207 241 260 297 411 904 1330 1960 3050
2020-07-10 22:30 2.93 643 3490 (2017) 199 (1964) 780 207 241 260 297 411 904 1330 1960 3050
2020-07-10 21:30 2.93 643 3490 (2017) 199 (1964) 780 207 241 260 297 411 904 1330 1960 3050
2020-07-10 20:30 2.93 643 3490 (2017) 199 (1964) 780 207 241 260 297 411 904 1330 1960 3050
2020-07-10 19:30 2.94 647 3490 (2017) 199 (1964) 780 207 241 260 297 411 904 1330 1960 3050
2020-07-10 18:30 2.96 656 3490 (2017) 199 (1964) 780 207 241 260 297 411 904 1330 1960 3050
2020-07-10 17:30 2.98 665 3490 (2017) 199 (1964) 780 207 241 260 297 411 904 1330 1960 3050
2020-07-10 16:30 2.99 670 3490 (2017) 199 (1964) 780 207 241 260 297 411 904 1330 1960 3050
2020-07-10 15:30 3.02 683 3490 (2017) 199 (1964) 780 207 241 260 297 411 904 1330 1960 3050
2020-07-10 14:30 3.04 693 3490 (2017) 199 (1964) 780 207 241 260 297 411 904 1330 1960 3050
2020-07-10 13:30 3.05 697 3490 (2017) 199 (1964) 780 207 241 260 297 411 904 1330 1960 3050
2020-07-10 12:30 3.10 720 3490 (2017) 199 (1964) 780 207 241 260 297 411 904 1330 1960 3050
2020-07-10 11:30 3.12 730 3490 (2017) 199 (1964) 780 207 241 260 297 411 904 1330 1960 3050
2020-07-10 10:30 3.12 730 3490 (2017) 199 (1964) 780 207 241 260 297 411 904 1330 1960 3050
2020-07-10 09:30 3.11 725 3490 (2017) 199 (1964) 780 207 241 260 297 411 904 1330 1960 3050
2020-07-10 08:30 3.13 734 3490 (2017) 199 (1964) 780 207 241 260 297 411 904 1330 1960 3050
2020-07-10 07:30 3.12 730 3490 (2017) 199 (1964) 780 207 241 260 297 411 904 1330 1960 3050
2020-07-10 06:30 3.13 734 3490 (2017) 199 (1964) 780 207 241 260 297 411 904 1330 1960 3050
2020-07-10 05:30 3.12 730 3490 (2017) 199 (1964) 780 207 241 260 297 411 904 1330 1960 3050
2020-07-10 04:30 3.12 730 3490 (2017) 199 (1964) 780 207 241 260 297 411 904 1330 1960 3050
2020-07-10 03:30 3.13 734 3490 (2017) 199 (1964) 780 207 241 260 297 411 904 1330 1960 3050
2020-07-10 02:30 3.14 739 3490 (2017) 199 (1964) 780 207 241 260 297 411 904 1330 1960 3050
2020-07-10 01:30 3.13 734 3490 (2017) 199 (1964) 780 207 241 260 297 411 904 1330 1960 3050
2020-07-10 00:30 3.13 734 3490 (2017) 199 (1964) 780 207 241 260 297 411 904 1330 1960 3050
2020-07-09 23:30 3.12 730 3450 (2017) 209 (1954) 798 213 245 269 294 447 998 1300 1990 2860
2020-07-09 22:30 3.13 734 3450 (2017) 209 (1954) 798 213 245 269 294 447 998 1300 1990 2860
2020-07-09 21:30 3.13 734 3450 (2017) 209 (1954) 798 213 245 269 294 447 998 1300 1990 2860
2020-07-09 20:30 3.13 734 3450 (2017) 209 (1954) 798 213 245 269 294 447 998 1300 1990 2860
2020-07-09 19:30 3.12 730 3450 (2017) 209 (1954) 798 213 245 269 294 447 998 1300 1990 2860
2020-07-09 18:30 3.14 739 3450 (2017) 209 (1954) 798 213 245 269 294 447 998 1300 1990 2860
2020-07-09 17:30 3.14 739 3450 (2017) 209 (1954) 798 213 245 269 294 447 998 1300 1990 2860
2020-07-09 16:30 3.15 744 3450 (2017) 209 (1954) 798 213 245 269 294 447 998 1300 1990 2860
2020-07-09 15:30 3.15 744 3450 (2017) 209 (1954) 798 213 245 269 294 447 998 1300 1990 2860
2020-07-09 14:30 3.16 748 3450 (2017) 209 (1954) 798 213 245 269 294 447 998 1300 1990 2860
2020-07-09 13:30 3.16 748 3450 (2017) 209 (1954) 798 213 245 269 294 447 998 1300 1990 2860
2020-07-09 12:30 3.18 758 3450 (2017) 209 (1954) 798 213 245 269 294 447 998 1300 1990 2860
2020-07-09 11:30 3.20 767 3450 (2017) 209 (1954) 798 213 245 269 294 447 998 1300 1990 2860
2020-07-09 10:30 3.20 767 3450 (2017) 209 (1954) 798 213 245 269 294 447 998 1300 1990 2860
2020-07-09 09:30 3.19 763 3450 (2017) 209 (1954) 798 213 245 269 294 447 998 1300 1990 2860
2020-07-09 08:30 3.19 763 3450 (2017) 209 (1954) 798 213 245 269 294 447 998 1300 1990 2860
2020-07-09 07:30 3.20 767 3450 (2017) 209 (1954) 798 213 245 269 294 447 998 1300 1990 2860
2020-07-09 06:30 3.20 767 3450 (2017) 209 (1954) 798 213 245 269 294 447 998 1300 1990 2860
2020-07-09 05:30 3.20 767 3450 (2017) 209 (1954) 798 213 245 269 294 447 998 1300 1990 2860
2020-07-09 04:30 3.21 772 3450 (2017) 209 (1954) 798 213 245 269 294 447 998 1300 1990 2860
2020-07-09 03:30 3.20 767 3450 (2017) 209 (1954) 798 213 245 269 294 447 998 1300 1990 2860
2020-07-09 02:30 3.20 767 3450 (2017) 209 (1954) 798 213 245 269 294 447 998 1300 1990 2860
2020-07-09 01:30 3.19 763 3450 (2017) 209 (1954) 798 213 245 269 294 447 998 1300 1990 2860
2020-07-09 00:30 3.22 777 3450 (2017) 209 (1954) 798 213 245 269 294 447 998 1300 1990 2860
2020-07-08 23:30 3.19 763 3490 (2017) 204 (2012) 799 241 251 283 306 419 825 1280 2040 2730
2020-07-08 22:30 3.20 767 3490 (2017) 204 (2012) 799 241 251 283 306 419 825 1280 2040 2730
2020-07-08 21:30 3.21 772 3490 (2017) 204 (2012) 799 241 251 283 306 419 825 1280 2040 2730
2020-07-08 20:30 3.19 763 3490 (2017) 204 (2012) 799 241 251 283 306 419 825 1280 2040 2730
2020-07-08 19:30 3.21 772 3490 (2017) 204 (2012) 799 241 251 283 306 419 825 1280 2040 2730
2020-07-08 18:30 3.20 767 3490 (2017) 204 (2012) 799 241 251 283 306 419 825 1280 2040 2730
2020-07-08 17:30 3.21 772 3490 (2017) 204 (2012) 799 241 251 283 306 419 825 1280 2040 2730
2020-07-08 16:30 3.21 772 3490 (2017) 204 (2012) 799 241 251 283 306 419 825 1280 2040 2730
2020-07-08 15:30 3.21 772 3490 (2017) 204 (2012) 799 241 251 283 306 419 825 1280 2040 2730
2020-07-08 14:30 3.21 772 3490 (2017) 204 (2012) 799 241 251 283 306 419 825 1280 2040 2730
2020-07-08 13:30 3.21 772 3490 (2017) 204 (2012) 799 241 251 283 306 419 825 1280 2040 2730
2020-07-08 12:30 3.20 767 3490 (2017) 204 (2012) 799 241 251 283 306 419 825 1280 2040 2730
2020-07-08 11:30 3.21 772 3490 (2017) 204 (2012) 799 241 251 283 306 419 825 1280 2040 2730
2020-07-08 10:30 3.22 777 3490 (2017) 204 (2012) 799 241 251 283 306 419 825 1280 2040 2730
2020-07-08 09:30 3.21 772 3490 (2017) 204 (2012) 799 241 251 283 306 419 825 1280 2040 2730
2020-07-08 08:30 3.22 777 3490 (2017) 204 (2012) 799 241 251 283 306 419 825 1280 2040 2730
2020-07-08 07:30 3.22 777 3490 (2017) 204 (2012) 799 241 251 283 306 419 825 1280 2040 2730
2020-07-08 06:30 3.22 777 3490 (2017) 204 (2012) 799 241 251 283 306 419 825 1280 2040 2730
2020-07-08 05:30 3.22 777 3490 (2017) 204 (2012) 799 241 251 283 306 419 825 1280 2040 2730
2020-07-08 04:30 3.23 782 3490 (2017) 204 (2012) 799 241 251 283 306 419 825 1280 2040 2730
2020-07-08 03:30 3.24 787 3490 (2017) 204 (2012) 799 241 251 283 306 419 825 1280 2040 2730
2020-07-08 02:30 3.24 787 3490 (2017) 204 (2012) 799 241 251 283 306 419 825 1280 2040 2730
2020-07-08 01:30 3.21 772 3490 (2017) 204 (2012) 799 241 251 283 306 419 825 1280 2040 2730
2020-07-08 00:30 3.21 772 3490 (2017) 204 (2012) 799 241 251 283 306 419 825 1280 2040 2730
2020-07-07 23:30 3.20 767 3520 (2017) 202 (2012) 780 215 246 275 287 436 779 1090 2050 2730
2020-07-07 22:30 3.20 767 3520 (2017) 202 (2012) 780 215 246 275 287 436 779 1090 2050 2730
2020-07-07 21:30 3.19 763 3520 (2017) 202 (2012) 780 215 246 275 287 436 779 1090 2050 2730
2020-07-07 20:30 3.20 767 3520 (2017) 202 (2012) 780 215 246 275 287 436 779 1090 2050 2730
2020-07-07 19:30 3.21 772 3520 (2017) 202 (2012) 780 215 246 275 287 436 779 1090 2050 2730
2020-07-07 18:30 3.19 763 3520 (2017) 202 (2012) 780 215 246 275 287 436 779 1090 2050 2730
2020-07-07 17:30 3.20 767 3520 (2017) 202 (2012) 780 215 246 275 287 436 779 1090 2050 2730
2020-07-07 16:30 3.19 763 3520 (2017) 202 (2012) 780 215 246 275 287 436 779 1090 2050 2730
2020-07-07 15:30 3.20 767 3520 (2017) 202 (2012) 780 215 246 275 287 436 779 1090 2050 2730
2020-07-07 14:30 3.20 767 3520 (2017) 202 (2012) 780 215 246 275 287 436 779 1090 2050 2730
2020-07-07 13:30 3.20 767 3520 (2017) 202 (2012) 780 215 246 275 287 436 779 1090 2050 2730
2020-07-07 12:30 3.20 767 3520 (2017) 202 (2012) 780 215 246 275 287 436 779 1090 2050 2730
2020-07-07 11:30 3.18 758 3520 (2017) 202 (2012) 780 215 246 275 287 436 779 1090 2050 2730
2020-07-07 10:30 3.20 767 3520 (2017) 202 (2012) 780 215 246 275 287 436 779 1090 2050 2730
2020-07-07 09:30 3.20 767 3520 (2017) 202 (2012) 780 215 246 275 287 436 779 1090 2050 2730
2020-07-07 08:30 3.20 767 3520 (2017) 202 (2012) 780 215 246 275 287 436 779 1090 2050 2730
2020-07-07 07:30 3.21 772 3520 (2017) 202 (2012) 780 215 246 275 287 436 779 1090 2050 2730
2020-07-07 06:30 3.20 767 3520 (2017) 202 (2012) 780 215 246 275 287 436 779 1090 2050 2730
2020-07-07 05:30 3.19 763 3520 (2017) 202 (2012) 780 215 246 275 287 436 779 1090 2050 2730
2020-07-07 04:30 3.20 767 3520 (2017) 202 (2012) 780 215 246 275 287 436 779 1090 2050 2730
2020-07-07 03:30 3.19 763 3520 (2017) 202 (2012) 780 215 246 275 287 436 779 1090 2050 2730
2020-07-07 02:30 3.20 767 3520 (2017) 202 (2012) 780 215 246 275 287 436 779 1090 2050 2730
2020-07-07 01:30 3.19 763 3520 (2017) 202 (2012) 780 215 246 275 287 436 779 1090 2050 2730
2020-07-07 00:30 3.19 763 3520 (2017) 202 (2012) 780 215 246 275 287 436 779 1090 2050 2730
2020-07-06 23:30 3.18 758 3550 (2017) 196 (1963) 761 216 242 267 282 433 767 1070 2040 2740
2020-07-06 22:30 3.17 753 3550 (2017) 196 (1963) 761 216 242 267 282 433 767 1070 2040 2740
2020-07-06 21:30 3.18 758 3550 (2017) 196 (1963) 761 216 242 267 282 433 767 1070 2040 2740
2020-07-06 20:30 3.17 753 3550 (2017) 196 (1963) 761 216 242 267 282 433 767 1070 2040 2740
2020-07-06 19:30 3.17 753 3550 (2017) 196 (1963) 761 216 242 267 282 433 767 1070 2040 2740
2020-07-06 18:30 3.16 748 3550 (2017) 196 (1963) 761 216 242 267 282 433 767 1070 2040 2740
2020-07-06 17:30 3.15 744 3550 (2017) 196 (1963) 761 216 242 267 282 433 767 1070 2040 2740
2020-07-06 16:30 3.14 739 3550 (2017) 196 (1963) 761 216 242 267 282 433 767 1070 2040 2740
2020-07-06 15:30 3.12 730 3550 (2017) 196 (1963) 761 216 242 267 282 433 767 1070 2040 2740
2020-07-06 14:30 3.08 711 3550 (2017) 196 (1963) 761 216 242 267 282 433 767 1070 2040 2740
2020-07-06 13:30 3.07 706 3550 (2017) 196 (1963) 761 216 242 267 282 433 767 1070 2040 2740
2020-07-06 12:30 3.03 688 3550 (2017) 196 (1963) 761 216 242 267 282 433 767 1070 2040 2740
2020-07-06 11:30 2.99 670 3550 (2017) 196 (1963) 761 216 242 267 282 433 767 1070 2040 2740
2020-07-06 10:30 3.00 674 3550 (2017) 196 (1963) 761 216 242 267 282 433 767 1070 2040 2740
2020-07-06 09:30 2.98 665 3550 (2017) 196 (1963) 761 216 242 267 282 433 767 1070 2040 2740
2020-07-06 08:30 2.99 670 3550 (2017) 196 (1963) 761 216 242 267 282 433 767 1070 2040 2740
2020-07-06 07:30 3.00 674 3550 (2017) 196 (1963) 761 216 242 267 282 433 767 1070 2040 2740
2020-07-06 06:30 3.00 674 3550 (2017) 196 (1963) 761 216 242 267 282 433 767 1070 2040 2740
2020-07-06 05:30 2.99 670 3550 (2017) 196 (1963) 761 216 242 267 282 433 767 1070 2040 2740
2020-07-06 04:30 3.00 674 3550 (2017) 196 (1963) 761 216 242 267 282 433 767 1070 2040 2740
2020-07-06 03:30 3.00 674 3550 (2017) 196 (1963) 761 216 242 267 282 433 767 1070 2040 2740
2020-07-06 02:30 2.99 670 3550 (2017) 196 (1963) 761 216 242 267 282 433 767 1070 2040 2740
2020-07-06 01:30 2.99 670 3550 (2017) 196 (1963) 761 216 242 267 282 433 767 1070 2040 2740
2020-07-06 00:30 2.99 670 3550 (2017) 196 (1963) 761 216 242 267 282 433 767 1070 2040 2740

A total of 188 rows are displayed for years 1949 through 2019.